Time;durP1;ratioP1;P1;durP2;ratioP2;P2;SDS_P1;SDS_P2;PMS_P1;PMS_P2;Temp;Humidity;BMP_temperature;BMP_pressure;BME280_temperature;BME280_humidity;BME280_pressure;Samples;Min_cycle;Max_cycle;Signal;HPM_P1;HPM_P2
2023/01/09 00:01:30;;;;;;;46.70;24.00;;;;;;;;;;767208;182;918849;-62
2023/01/09 00:03:56;;;;;;;39.73;22.67;;;;;;;;;;771710;181;920894;-60
2023/01/09 00:06:22;;;;;;;42.10;24.80;;;;;;;;;;772384;182;919279;-62
2023/01/09 00:08:48;;;;;;;37.40;23.80;;;;;;;;;;775318;181;919156;-68
2023/01/09 00:11:14;;;;;;;36.55;22.92;;;;;;;;;;769509;180;918529;-69
2023/01/09 00:13:39;;;;;;;32.37;19.90;;;;;;;;;;774169;181;919174;-62
2023/01/09 00:16:06;;;;;;;32.83;19.33;;;;;;;;;;778616;180;917750;-62
2023/01/09 00:18:32;;;;;;;39.80;25.07;;;;;;;;;;772601;181;920405;-69
2023/01/09 00:20:58;;;;;;;35.10;23.90;;;;;;;;;;771018;181;921529;-62
2023/01/09 00:23:24;;;;;;;39.20;23.67;;;;;;;;;;769534;181;944822;-68
2023/01/09 00:25:50;;;;;;;40.40;23.03;;;;;;;;;;774413;181;917965;-69
2023/01/09 00:28:16;;;;;;;39.93;23.30;;;;;;;;;;774866;179;919005;-69
2023/01/09 00:30:42;;;;;;;29.80;18.25;;;;;;;;;;775120;180;918351;-68
2023/01/09 00:33:09;;;;;;;34.10;22.13;;;;;;;;;;778981;180;918314;-63
2023/01/09 00:35:33;;;;;;;29.60;20.03;;;;;;;;;;779000;181;706450;-69
2023/01/09 00:38:01;;;;;;;31.30;18.73;;;;;;;;;;774540;179;918491;-62
2023/01/09 00:40:25;;;;;;;30.67;18.50;;;;;;;;;;768980;181;918948;-68
2023/01/09 00:42:51;;;;;;;34.07;21.67;;;;;;;;;;764438;182;918273;-69
2023/01/09 00:45:18;;;;;;;34.58;21.70;;;;;;;;;;766449;182;891731;-62
2023/01/09 00:47:43;;;;;;;39.53;22.80;;;;;;;;;;765762;182;919827;-68
2023/01/09 00:50:10;;;;;;;31.63;21.17;;;;;;;;;;754438;184;891411;-69
2023/01/09 00:52:36;;;;;;;33.87;20.80;;;;;;;;;;764080;181;918923;-69
2023/01/09 00:55:02;;;;;;;35.53;20.33;;;;;;;;;;771415;181;918846;-62
2023/01/09 00:57:27;;;;;;;32.93;21.10;;;;;;;;;;769545;182;917302;-62
2023/01/09 00:59:53;;;;;;;36.67;21.87;;;;;;;;;;754300;184;920451;-68
2023/01/09 01:02:19;;;;;;;39.58;24.17;;;;;;;;;;760101;182;1021056;-62
2023/01/09 01:09:48;;;;;;;36.10;22.27;;;;;;;;;;763815;183;921263;-64
2023/01/09 01:12:14;;;;;;;37.42;21.33;;;;;;;;;;766520;180;1020697;-69
2023/01/09 01:14:40;;;;;;;39.10;23.03;;;;;;;;;;777678;181;919004;-61
2023/01/09 01:17:06;;;;;;;40.10;21.37;;;;;;;;;;771377;180;918484;-61
2023/01/09 01:19:31;;;;;;;37.65;24.08;;;;;;;;;;775925;179;824021;-62
2023/01/09 01:21:57;;;;;;;40.10;24.67;;;;;;;;;;771588;181;1018211;-68
2023/01/09 01:24:23;;;;;;;54.37;29.20;;;;;;;;;;779050;180;802584;-68
2023/01/09 01:26:49;;;;;;;50.80;29.30;;;;;;;;;;771749;181;920718;-68
2023/01/09 01:29:15;;;;;;;52.50;28.35;;;;;;;;;;771688;181;916782;-68
2023/01/09 01:31:41;;;;;;;47.17;27.27;;;;;;;;;;781292;176;762928;-68
2023/01/09 01:34:07;;;;;;;51.37;32.55;;;;;;;;;;762989;184;919291;-62
2023/01/09 01:36:32;;;;;;;58.50;37.70;;;;;;;;;;764931;181;919321;-64
2023/01/09 01:38:58;;;;;;;49.50;27.50;;;;;;;;;;778834;179;918736;-68
2023/01/09 01:41:28;;;;;;;55.07;31.43;;;;;;;;;;773472;180;916993;-62
2023/01/09 01:43:54;;;;;;;58.10;32.20;;;;;;;;;;772896;179;917686;-69
2023/01/09 01:46:20;;;;;;;48.22;30.20;;;;;;;;;;773412;180;916346;-63
2023/01/09 01:48:46;;;;;;;48.37;30.13;;;;;;;;;;779149;180;927355;-69
2023/01/09 01:51:13;;;;;;;52.03;31.37;;;;;;;;;;769599;182;918760;-62
2023/01/09 01:53:38;;;;;;;54.20;30.47;;;;;;;;;;769487;180;920746;-63
2023/01/09 01:56:24;;;;;;;47.30;30.27;;;;;;;;;;774422;182;918909;-70
2023/01/09 01:58:50;;;;;;;43.00;27.53;;;;;;;;;;769482;183;919504;-63
2023/01/09 02:01:15;;;;;;;55.90;29.37;;;;;;;;;;763126;184;919404;-63
2023/01/09 02:03:41;;;;;;;44.33;28.58;;;;;;;;;;764689;182;919219;-62
2023/01/09 02:06:07;;;;;;;44.37;24.87;;;;;;;;;;772916;182;919330;-69
2023/01/09 02:08:33;;;;;;;37.13;24.00;;;;;;;;;;774455;179;918212;-63
2023/01/09 02:10:59;;;;;;;38.83;22.50;;;;;;;;;;771939;180;919754;-62
2023/01/09 02:13:25;;;;;;;41.23;23.10;;;;;;;;;;772388;180;920878;-69
2023/01/09 02:16:02;;;;;;;36.37;21.23;;;;;;;;;;778870;181;810841;-62
2023/01/09 02:18:34;;;;;;;38.83;23.67;;;;;;;;;;776292;180;868465;-63
2023/01/09 02:21:00;;;;;;;42.53;23.53;;;;;;;;;;771585;180;914400;-69
2023/01/09 02:23:29;;;;;;;41.17;22.80;;;;;;;;;;771017;182;919470;-63
2023/01/09 02:26:08;;;;;;;34.53;20.50;;;;;;;;;;775064;181;1021621;-63
2023/01/09 02:28:39;;;;;;;31.43;20.47;;;;;;;;;;775690;181;850885;-63
2023/01/09 02:31:05;;;;;;;35.67;21.00;;;;;;;;;;775214;181;917851;-69
2023/01/09 02:33:34;;;;;;;33.10;21.00;;;;;;;;;;760132;182;916066;-62
2023/01/09 02:36:00;;;;;;;35.40;22.23;;;;;;;;;;753156;185;918808;-69
2023/01/09 02:38:36;;;;;;;38.20;23.20;;;;;;;;;;767931;182;918983;-63
2023/01/09 02:41:07;;;;;;;37.60;21.87;;;;;;;;;;774199;181;919329;-68
2023/01/09 02:43:32;;;;;;;31.60;20.00;;;;;;;;;;770613;181;918920;-62
2023/01/09 02:45:58;;;;;;;32.72;19.70;;;;;;;;;;768656;182;1020952;-64
2023/01/09 02:48:24;;;;;;;32.87;20.27;;;;;;;;;;773759;182;920434;-64
2023/01/09 02:50:50;;;;;;;33.47;19.80;;;;;;;;;;769289;180;919442;-63
2023/01/09 02:53:21;;;;;;;37.08;22.20;;;;;;;;;;762131;182;928011;-63
2023/01/09 02:55:47;;;;;;;34.23;20.77;;;;;;;;;;761353;181;919832;-63
2023/01/09 02:58:25;;;;;;;30.30;20.30;;;;;;;;;;768060;181;819743;-70
2023/01/09 03:00:56;;;;;;;32.83;19.93;;;;;;;;;;776313;181;918161;-69
2023/01/09 03:03:26;;;;;;;35.50;22.07;;;;;;;;;;770721;179;921587;-63
2023/01/09 03:05:51;;;;;;;33.05;18.92;;;;;;;;;;772180;175;916830;-69
2023/01/09 03:08:19;;;;;;;30.27;18.27;;;;;;;;;;774512;180;918740;-63
2023/01/09 03:10:48;;;;;;;28.53;19.20;;;;;;;;;;780422;181;815501;-63
2023/01/09 03:13:14;;;;;;;31.70;18.93;;;;;;;;;;773092;180;1024826;-69
2023/01/09 03:15:40;;;;;;;31.40;18.40;;;;;;;;;;769923;181;918578;-69
2023/01/09 03:18:06;;;;;;;28.70;18.10;;;;;;;;;;776527;182;817076;-69
2023/01/09 03:20:32;;;;;;;26.07;15.83;;;;;;;;;;774153;181;919450;-63
2023/01/09 03:22:57;;;;;;;17.50;10.60;;;;;;;;;;766975;182;919330;-63
2023/01/09 03:25:23;;;;;;;15.70;11.17;;;;;;;;;;758889;184;919429;-69
2023/01/09 03:27:50;;;;;;;17.42;10.73;;;;;;;;;;756874;182;920178;-69
2023/01/09 03:30:16;;;;;;;12.00;8.33;;;;;;;;;;769526;180;907935;-69
2023/01/09 03:32:42;;;;;;;11.30;7.50;;;;;;;;;;770599;180;919803;-69
2023/01/09 03:35:08;;;;;;;11.70;7.70;;;;;;;;;;774742;180;916671;-63
2023/01/09 03:37:34;;;;;;;14.57;10.53;;;;;;;;;;772474;181;813860;-62
2023/01/09 03:40:00;;;;;;;16.90;11.20;;;;;;;;;;769074;183;918641;-70
2023/01/09 03:42:26;;;;;;;13.07;8.45;;;;;;;;;;775914;182;915264;-63
2023/01/09 03:44:51;;;;;;;10.07;7.63;;;;;;;;;;768201;183;919451;-69
2023/01/09 03:47:17;;;;;;;11.37;6.70;;;;;;;;;;767880;183;920627;-69
2023/01/09 03:49:43;;;;;;;9.53;6.90;;;;;;;;;;767991;183;919251;-63
2023/01/09 03:52:09;;;;;;;13.90;7.90;;;;;;;;;;765928;182;918978;-68
2023/01/09 03:54:35;;;;;;;10.77;7.20;;;;;;;;;;771410;182;919065;-63
2023/01/09 03:57:01;;;;;;;13.57;8.03;;;;;;;;;;771946;182;919625;-69
2023/01/09 03:59:26;;;;;;;10.87;6.60;;;;;;;;;;760252;183;919814;-63
2023/01/09 04:01:52;;;;;;;8.27;6.10;;;;;;;;;;756043;184;906285;-70
2023/01/09 04:04:18;;;;;;;13.57;6.60;;;;;;;;;;766343;179;1018154;-63
2023/01/09 04:06:44;;;;;;;10.73;6.37;;;;;;;;;;777076;181;918021;-70
2023/01/09 04:09:10;;;;;;;11.03;5.47;;;;;;;;;;772091;180;920273;-69
2023/01/09 04:11:36;;;;;;;10.80;6.33;;;;;;;;;;772509;181;1020687;-68
2023/01/09 04:14:01;;;;;;;10.83;6.53;;;;;;;;;;773939;181;918626;-63
2023/01/09 04:16:27;;;;;;;7.80;5.30;;;;;;;;;;769855;180;919444;-70
2023/01/09 04:18:53;;;;;;;9.83;5.30;;;;;;;;;;770453;181;921656;-69
2023/01/09 04:21:19;;;;;;;10.63;4.77;;;;;;;;;;777938;181;920260;-63
2023/01/09 04:23:45;;;;;;;10.57;6.60;;;;;;;;;;767864;182;920802;-69
2023/01/09 04:26:11;;;;;;;9.63;5.67;;;;;;;;;;763345;184;920872;-69
2023/01/09 04:28:36;;;;;;;7.63;5.00;;;;;;;;;;767531;179;915093;-63
2023/01/09 04:31:02;;;;;;;9.03;6.30;;;;;;;;;;778974;181;818781;-63
2023/01/09 04:33:28;;;;;;;8.70;5.60;;;;;;;;;;765928;181;915193;-63
2023/01/09 04:35:54;;;;;;;10.03;5.87;;;;;;;;;;772569;181;817169;-63
2023/01/09 04:38:20;;;;;;;7.70;5.33;;;;;;;;;;773047;182;816720;-63
2023/01/09 04:40:46;;;;;;;9.43;5.13;;;;;;;;;;768879;182;920249;-64
2023/01/09 04:43:11;;;;;;;9.43;5.07;;;;;;;;;;765417;181;918972;-70
2023/01/09 04:45:37;;;;;;;8.90;5.90;;;;;;;;;;765246;182;921406;-63
2023/01/09 04:48:03;;;;;;;8.03;4.80;;;;;;;;;;766730;180;919344;-63
2023/01/09 04:50:29;;;;;;;6.40;4.50;;;;;;;;;;771015;182;815522;-63
2023/01/09 04:52:55;;;;;;;8.50;4.97;;;;;;;;;;763373;182;919003;-70
2023/01/09 04:55:21;;;;;;;6.23;4.00;;;;;;;;;;774048;182;896168;-70
2023/01/09 04:57:47;;;;;;;8.70;5.47;;;;;;;;;;770136;179;917151;-70
2023/01/09 05:00:13;;;;;;;8.10;4.80;;;;;;;;;;770080;180;919526;-70
2023/01/09 05:02:39;;;;;;;5.93;4.00;;;;;;;;;;772617;181;817080;-70
2023/01/09 05:05:04;;;;;;;5.47;3.57;;;;;;;;;;774055;181;814789;-62
2023/01/09 05:07:30;;;;;;;6.50;3.90;;;;;;;;;;754281;182;927487;-69
2023/01/09 05:09:56;;;;;;;5.80;4.07;;;;;;;;;;760015;182;918469;-62
2023/01/09 05:12:22;;;;;;;9.47;3.70;;;;;;;;;;757939;184;817494;-69
2023/01/09 05:14:48;;;;;;;6.00;4.20;;;;;;;;;;761674;181;917071;-62
2023/01/09 05:17:14;;;;;;;6.10;4.23;;;;;;;;;;773389;180;918854;-68
2023/01/09 05:19:40;;;;;;;4.10;2.27;;;;;;;;;;769014;178;921219;-70
2023/01/09 05:22:05;;;;;;;7.80;4.07;;;;;;;;;;767877;181;922629;-69
2023/01/09 05:24:31;;;;;;;6.03;3.60;;;;;;;;;;763038;182;919464;-63
2023/01/09 05:26:57;;;;;;;3.75;2.75;;;;;;;;;;761162;185;816655;-62
2023/01/09 05:29:23;;;;;;;5.47;3.20;;;;;;;;;;761271;181;921648;-62
2023/01/09 05:31:49;;;;;;;5.18;3.33;;;;;;;;;;770473;179;915449;-68
2023/01/09 05:34:15;;;;;;;4.60;3.30;;;;;;;;;;774612;181;818094;-70
2023/01/09 05:36:40;;;;;;;4.40;2.40;;;;;;;;;;772695;179;920976;-68
2023/01/09 05:39:06;;;;;;;4.60;2.80;;;;;;;;;;773079;180;916083;-62
2023/01/09 05:41:32;;;;;;;5.07;2.63;;;;;;;;;;768639;182;873801;-61
2023/01/09 05:43:58;;;;;;;2.40;1.73;;;;;;;;;;764451;182;916231;-61
2023/01/09 05:46:24;;;;;;;3.80;2.07;;;;;;;;;;753949;184;943148;-70
2023/01/09 05:48:50;;;;;;;2.83;2.00;;;;;;;;;;754445;182;919302;-69
2023/01/09 05:51:15;;;;;;;3.20;2.00;;;;;;;;;;769558;181;618541;-61
2023/01/09 05:53:41;;;;;;;2.37;1.47;;;;;;;;;;772404;181;920779;-65
2023/01/09 05:56:07;;;;;;;2.60;1.20;;;;;;;;;;769533;181;861624;-62
2023/01/09 05:58:33;;;;;;;3.90;2.00;;;;;;;;;;768457;181;917810;-67
2023/01/09 06:00:59;;;;;;;4.78;1.77;;;;;;;;;;771192;181;921023;-69
2023/01/09 06:03:25;;;;;;;3.20;1.67;;;;;;;;;;773736;181;918526;-61
2023/01/09 06:05:50;;;;;;;5.80;2.00;;;;;;;;;;778726;180;925240;-70
2023/01/09 06:08:16;;;;;;;3.60;1.80;;;;;;;;;;772523;181;919238;-61
2023/01/09 06:10:42;;;;;;;2.60;1.70;;;;;;;;;;769021;181;916760;-61
2023/01/09 06:13:08;;;;;;;2.90;2.28;;;;;;;;;;769029;181;899940;-67
2023/01/09 06:15:34;;;;;;;2.00;1.00;;;;;;;;;;777529;179;879130;-68
2023/01/09 06:18:00;;;;;;;2.20;1.40;;;;;;;;;;775221;180;920454;-67
2023/01/09 06:20:25;;;;;;;2.75;1.67;;;;;;;;;;772660;181;917975;-61
2023/01/09 06:22:52;;;;;;;2.97;2.07;;;;;;;;;;778195;182;913916;-61
2023/01/09 06:25:17;;;;;;;3.33;1.67;;;;;;;;;;774146;180;919598;-68
2023/01/09 06:27:43;;;;;;;2.37;1.73;;;;;;;;;;773630;181;1021638;-69
2023/01/09 06:30:09;;;;;;;3.40;1.90;;;;;;;;;;778184;179;919287;-61
2023/01/09 06:32:35;;;;;;;3.03;1.80;;;;;;;;;;775041;181;919399;-68
2023/01/09 06:35:01;;;;;;;2.00;1.10;;;;;;;;;;767442;182;917469;-61
2023/01/09 06:37:27;;;;;;;2.53;1.40;;;;;;;;;;765757;182;818785;-66
2023/01/09 06:39:53;;;;;;;3.00;1.80;;;;;;;;;;767931;182;919353;-62
2023/01/09 06:42:18;;;;;;;3.17;1.63;;;;;;;;;;770555;179;918576;-61
2023/01/09 06:44:44;;;;;;;5.10;1.63;;;;;;;;;;763680;182;919045;-61
2023/01/09 06:47:10;;;;;;;2.90;1.33;;;;;;;;;;769989;182;919992;-61
2023/01/09 06:49:36;;;;;;;2.75;1.35;;;;;;;;;;770748;180;919207;-68
2023/01/09 06:52:04;;;;;;;3.60;2.00;;;;;;;;;;771585;181;921822;-69
2023/01/09 06:54:28;;;;;;;2.00;1.00;;;;;;;;;;775169;180;818989;-67
2023/01/09 06:56:54;;;;;;;2.63;1.27;;;;;;;;;;768762;182;921219;-68
2023/01/09 06:59:19;;;;;;;4.73;1.63;;;;;;;;;;770236;180;924744;-68
2023/01/09 07:01:45;;;;;;;2.73;1.33;;;;;;;;;;773717;179;916828;-68
2023/01/09 07:04:11;;;;;;;2.03;0.90;;;;;;;;;;772429;181;911291;-61
2023/01/09 07:06:37;;;;;;;3.00;1.20;;;;;;;;;;768067;182;918939;-68
2023/01/09 07:09:04;;;;;;;2.40;1.20;;;;;;;;;;772235;181;919837;-61
2023/01/09 07:11:29;;;;;;;2.53;1.40;;;;;;;;;;775993;180;940505;-60
2023/01/09 07:13:54;;;;;;;2.67;1.40;;;;;;;;;;772070;181;919519;-69
2023/01/09 07:16:20;;;;;;;2.73;1.63;;;;;;;;;;773102;180;919731;-68
2023/01/09 07:18:46;;;;;;;4.93;2.53;;;;;;;;;;777422;182;920187;-67
2023/01/09 07:21:12;;;;;;;2.60;1.45;;;;;;;;;;769292;180;921012;-61
2023/01/09 07:23:38;;;;;;;5.60;2.40;;;;;;;;;;765257;181;920513;-68
2023/01/09 07:26:04;;;;;;;3.70;1.43;;;;;;;;;;775764;182;817876;-60
2023/01/09 07:28:30;;;;;;;2.50;1.47;;;;;;;;;;772246;181;818135;-67
2023/01/09 07:30:56;;;;;;;9.80;2.90;;;;;;;;;;772774;182;918588;-61
2023/01/09 07:33:22;;;;;;;3.40;1.70;;;;;;;;;;770999;181;919420;-67
2023/01/09 07:35:48;;;;;;;4.53;1.63;;;;;;;;;;777076;179;1020630;-66
2023/01/09 07:38:14;;;;;;;3.00;1.80;;;;;;;;;;767150;181;919653;-67
2023/01/09 07:40:39;;;;;;;5.12;1.77;;;;;;;;;;769409;181;918136;-67
2023/01/09 07:43:05;;;;;;;3.00;1.63;;;;;;;;;;772723;181;918065;-60
2023/01/09 07:45:31;;;;;;;3.10;1.70;;;;;;;;;;769603;181;919247;-67
2023/01/09 07:47:57;;;;;;;3.53;1.23;;;;;;;;;;774373;180;813418;-67
2023/01/09 07:50:23;;;;;;;2.47;1.40;;;;;;;;;;778450;181;915377;-61
2023/01/09 07:52:49;;;;;;;3.20;1.73;;;;;;;;;;774644;180;887858;-64
2023/01/09 07:55:14;;;;;;;2.93;1.37;;;;;;;;;;768231;180;984106;-61
2023/01/09 07:57:40;;;;;;;2.50;1.53;;;;;;;;;;775995;180;917937;-61
2023/01/09 08:00:09;;;;;;;3.13;1.77;;;;;;;;;;762875;182;916608;-60
2023/01/09 08:02:34;;;;;;;2.53;1.57;;;;;;;;;;754115;182;919223;-60
2023/01/09 08:05:00;;;;;;;4.30;1.83;;;;;;;;;;768892;180;923037;-66
2023/01/09 08:07:26;;;;;;;3.13;1.80;;;;;;;;;;777854;181;919565;-67
2023/01/09 08:09:52;;;;;;;2.53;1.37;;;;;;;;;;771882;181;919281;-61
2023/01/09 08:12:18;;;;;;;3.30;1.87;;;;;;;;;;766711;181;920672;-61
2023/01/09 08:14:44;;;;;;;3.00;1.70;;;;;;;;;;769273;181;916150;-68
2023/01/09 08:17:10;;;;;;;3.37;1.73;;;;;;;;;;768009;182;919694;-69
2023/01/09 08:19:35;;;;;;;2.67;1.50;;;;;;;;;;762660;183;924621;-61
2023/01/09 08:22:02;;;;;;;3.80;2.33;;;;;;;;;;759978;184;919438;-62
2023/01/09 08:24:29;;;;;;;3.00;2.00;;;;;;;;;;772100;182;917945;-67
2023/01/09 08:26:54;;;;;;;3.03;1.47;;;;;;;;;;765351;181;816336;-61
2023/01/09 08:29:19;;;;;;;2.83;1.43;;;;;;;;;;763099;182;918838;-61
2023/01/09 08:31:45;;;;;;;3.10;2.03;;;;;;;;;;776011;179;920398;-67
2023/01/09 08:34:11;;;;;;;3.00;1.73;;;;;;;;;;766030;181;916338;-69
2023/01/09 08:36:37;;;;;;;2.27;1.30;;;;;;;;;;769819;182;812189;-67
2023/01/09 08:39:03;;;;;;;3.37;2.00;;;;;;;;;;770131;181;920222;-61
2023/01/09 08:49:04;;;;;;;3.20;2.07;;;;;;;;;;779821;180;919202;-67
2023/01/09 08:51:29;;;;;;;4.23;2.40;;;;;;;;;;772090;181;919384;-68
2023/01/09 08:53:55;;;;;;;3.20;2.10;;;;;;;;;;771178;181;922531;-68
2023/01/09 08:56:21;;;;;;;5.07;2.40;;;;;;;;;;770342;180;919039;-62
2023/01/09 08:58:47;;;;;;;2.90;1.83;;;;;;;;;;775740;180;919220;-69
2023/01/09 09:01:13;;;;;;;3.30;2.03;;;;;;;;;;771769;181;918384;-67
2023/01/09 09:03:39;;;;;;;4.43;2.00;;;;;;;;;;773019;180;819113;-61
2023/01/09 09:06:05;;;;;;;3.97;2.87;;;;;;;;;;773158;181;918076;-67
2023/01/09 09:08:31;;;;;;;3.60;2.20;;;;;;;;;;775098;180;918314;-62
2023/01/09 09:10:56;;;;;;;3.53;2.40;;;;;;;;;;774208;180;918507;-67
2023/01/09 09:13:22;;;;;;;3.73;2.23;;;;;;;;;;779097;182;817188;-60
2023/01/09 09:15:48;;;;;;;4.53;2.90;;;;;;;;;;765701;181;920293;-66
2023/01/09 09:18:14;;;;;;;3.57;1.60;;;;;;;;;;773675;179;815974;-65
2023/01/09 09:20:40;;;;;;;4.23;2.23;;;;;;;;;;768043;180;915268;-60
2023/01/09 09:23:07;;;;;;;5.03;2.40;;;;;;;;;;775730;182;918890;-68
2023/01/09 09:25:31;;;;;;;7.73;2.20;;;;;;;;;;766089;182;1018884;-66
2023/01/09 09:27:59;;;;;;;3.95;2.37;;;;;;;;;;769832;180;1021726;-67
2023/01/09 09:30:23;;;;;;;3.33;2.20;;;;;;;;;;778484;181;920005;-66
2023/01/09 09:32:49;;;;;;;4.30;2.53;;;;;;;;;;771308;182;918761;-60
2023/01/09 09:35:16;;;;;;;2.73;1.90;;;;;;;;;;766454;181;915888;-60
2023/01/09 09:37:41;;;;;;;3.17;2.27;;;;;;;;;;776480;179;918124;-68
2023/01/09 09:40:07;;;;;;;3.70;2.23;;;;;;;;;;769384;181;919274;-67
2023/01/09 09:45:12;;;;;;;4.80;2.45;;;;;;;;;;756530;181;918725;-61
2023/01/09 09:47:42;;;;;;;6.00;2.50;;;;;;;;;;771270;181;919816;-67
2023/01/09 09:50:08;;;;;;;4.30;2.25;;;;;;;;;;769114;182;919752;-68
2023/01/09 09:52:38;;;;;;;4.90;2.23;;;;;;;;;;772144;180;923193;-68
2023/01/09 09:55:05;;;;;;;4.33;2.77;;;;;;;;;;772430;180;915387;-60
2023/01/09 09:57:31;;;;;;;3.60;2.43;;;;;;;;;;772882;182;919127;-60
2023/01/09 09:59:57;;;;;;;4.17;2.87;;;;;;;;;;768137;179;920730;-61
2023/01/09 10:02:24;;;;;;;5.63;3.07;;;;;;;;;;772658;181;918125;-68
2023/01/09 10:04:50;;;;;;;4.03;2.50;;;;;;;;;;772045;181;919028;-66
2023/01/09 10:07:20;;;;;;;3.43;2.13;;;;;;;;;;778538;181;919397;-68
2023/01/09 10:09:46;;;;;;;5.93;3.03;;;;;;;;;;773403;181;919167;-60
2023/01/09 10:12:29;;;;;;;5.90;2.87;;;;;;;;;;767183;181;914766;-61
2023/01/09 10:14:56;;;;;;;5.13;3.60;;;;;;;;;;764806;181;1020590;-60
2023/01/09 10:17:22;;;;;;;3.93;2.80;;;;;;;;;;775494;179;916675;-60
2023/01/09 10:19:54;;;;;;;4.60;3.00;;;;;;;;;;763895;181;915236;-60
2023/01/09 10:22:36;;;;;;;5.57;3.60;;;;;;;;;;768421;180;850042;-65
2023/01/09 10:25:14;;;;;;;7.00;4.00;;;;;;;;;;772245;178;913660;-65
2023/01/09 10:27:40;;;;;;;6.53;3.50;;;;;;;;;;767427;181;921711;-65
2023/01/09 10:30:24;;;;;;;7.93;3.63;;;;;;;;;;763788;182;919349;-61
2023/01/09 10:33:07;;;;;;;6.40;3.30;;;;;;;;;;762171;183;919361;-61
2023/01/09 10:35:37;;;;;;;5.23;3.20;;;;;;;;;;768468;179;925614;-61
2023/01/09 10:38:03;;;;;;;6.50;3.30;;;;;;;;;;772303;182;915821;-66
2023/01/09 10:40:28;;;;;;;4.93;3.20;;;;;;;;;;774118;181;814972;-66
2023/01/09 10:42:56;;;;;;;6.07;4.60;;;;;;;;;;771526;181;918322;-61
2023/01/09 10:45:23;;;;;;;5.57;3.50;;;;;;;;;;770714;180;918795;-67
2023/01/09 10:47:49;;;;;;;6.27;3.77;;;;;;;;;;776725;180;919239;-61
2023/01/09 10:50:15;;;;;;;5.40;3.77;;;;;;;;;;772066;182;919203;-62
2023/01/09 10:52:41;;;;;;;11.20;4.00;;;;;;;;;;771796;182;921267;-67
2023/01/09 10:55:07;;;;;;;5.93;3.70;;;;;;;;;;776827;182;938353;-67
2023/01/09 10:57:34;;;;;;;7.20;4.37;;;;;;;;;;758392;181;1022950;-68
2023/01/09 10:59:59;;;;;;;8.00;4.23;;;;;;;;;;755099;185;862815;-62
2023/01/09 11:02:26;;;;;;;5.93;3.80;;;;;;;;;;770629;180;904591;-67
2023/01/09 11:04:52;;;;;;;7.23;4.30;;;;;;;;;;771548;180;916023;-68
2023/01/09 11:07:18;;;;;;;5.63;4.20;;;;;;;;;;771593;179;919627;-62
2023/01/09 11:09:49;;;;;;;8.70;5.30;;;;;;;;;;772324;181;930823;-68
2023/01/09 11:12:21;;;;;;;6.67;4.63;;;;;;;;;;768083;181;923657;-62
2023/01/09 11:14:47;;;;;;;6.33;4.50;;;;;;;;;;761758;181;906351;-68
2023/01/09 11:17:13;;;;;;;9.30;6.00;;;;;;;;;;759875;181;817973;-62
2023/01/09 11:19:39;;;;;;;7.23;4.87;;;;;;;;;;756566;186;1021177;-62
2023/01/09 11:22:07;;;;;;;8.50;4.43;;;;;;;;;;756124;186;825952;-62
2023/01/09 11:24:32;;;;;;;7.03;5.00;;;;;;;;;;764093;181;918604;-68
2023/01/09 11:27:22;;;;;;;6.10;4.27;;;;;;;;;;768646;181;920306;-63
2023/01/09 11:29:42;;;;;;;8.20;4.82;;;;;;;;;;771378;181;918704;-63
2023/01/09 11:32:14;;;;;;;7.70;5.00;;;;;;;;;;771779;181;919223;-68
2023/01/09 11:34:40;;;;;;;7.80;5.50;;;;;;;;;;766701;182;918210;-63
2023/01/09 11:37:06;;;;;;;6.50;4.90;;;;;;;;;;771243;181;816977;-63
2023/01/09 11:39:31;;;;;;;6.73;5.60;;;;;;;;;;769995;181;917065;-69
2023/01/09 11:41:58;;;;;;;5.20;4.70;;;;;;;;;;772705;180;868953;-63
2023/01/09 11:44:24;;;;;;;4.63;3.47;;;;;;;;;;767642;179;915712;-69
2023/01/09 11:46:50;;;;;;;6.53;5.00;;;;;;;;;;767151;182;919472;-69
2023/01/09 11:49:18;;;;;;;9.30;6.23;;;;;;;;;;772738;182;913572;-68
2023/01/09 11:51:43;;;;;;;10.97;5.90;;;;;;;;;;770511;181;919204;-68
2023/01/09 11:54:15;;;;;;;6.20;5.23;;;;;;;;;;768525;181;878903;-62
2023/01/09 11:56:41;;;;;;;6.83;4.77;;;;;;;;;;765901;182;918993;-62
2023/01/09 11:59:08;;;;;;;8.50;6.17;;;;;;;;;;773731;181;919020;-62
2023/01/09 12:01:38;;;;;;;6.10;4.47;;;;;;;;;;769388;180;918836;-62
2023/01/09 12:04:05;;;;;;;6.83;4.77;;;;;;;;;;768660;180;918773;-62
2023/01/09 12:06:33;;;;;;;7.97;6.00;;;;;;;;;;767758;180;911835;-68
2023/01/09 12:08:59;;;;;;;6.23;5.00;;;;;;;;;;764635;181;915623;-62
2023/01/09 12:11:26;;;;;;;6.60;5.30;;;;;;;;;;770002;181;915049;-62
2023/01/09 12:13:56;;;;;;;8.53;5.77;;;;;;;;;;770078;182;919411;-63
2023/01/09 12:16:26;;;;;;;7.70;5.73;;;;;;;;;;773385;182;818096;-62
2023/01/09 12:18:55;;;;;;;8.27;5.50;;;;;;;;;;769554;183;817096;-62
2023/01/09 12:21:24;;;;;;;7.32;5.05;;;;;;;;;;762820;181;1011282;-63
2023/01/09 12:24:01;;;;;;;7.73;5.37;;;;;;;;;;771284;180;919751;-63
2023/01/09 12:26:30;;;;;;;8.93;6.18;;;;;;;;;;767395;181;919317;-69
2023/01/09 12:28:59;;;;;;;8.00;5.20;;;;;;;;;;760646;184;914642;-69
2023/01/09 12:31:42;;;;;;;7.62;5.00;;;;;;;;;;758972;182;814847;-63
2023/01/09 12:34:10;;;;;;;8.53;5.50;;;;;;;;;;758972;182;815774;-64
2023/01/09 12:36:36;;;;;;;8.75;5.10;;;;;;;;;;766197;179;918403;-70
2023/01/09 12:39:18;;;;;;;8.40;6.23;;;;;;;;;;772075;181;918960;-69
2023/01/09 12:41:59;;;;;;;6.43;5.53;;;;;;;;;;768236;179;920510;-64
2023/01/09 12:44:41;;;;;;;8.37;5.90;;;;;;;;;;772314;179;819375;-63
2023/01/09 12:47:08;;;;;;;11.93;6.47;;;;;;;;;;762610;182;918909;-64
2023/01/09 12:49:34;;;;;;;7.77;5.40;;;;;;;;;;760926;182;919525;-69
2023/01/09 12:52:06;;;;;;;8.80;5.67;;;;;;;;;;763189;182;918806;-70
2023/01/09 12:54:33;;;;;;;8.70;5.93;;;;;;;;;;754133;184;998121;-64
2023/01/09 12:57:00;;;;;;;7.87;5.10;;;;;;;;;;759185;182;918833;-65
2023/01/09 12:59:29;;;;;;;11.93;5.20;;;;;;;;;;759785;182;919170;-70
2023/01/09 13:01:53;;;;;;;8.97;6.00;;;;;;;;;;762143;182;919161;-63
2023/01/09 13:04:19;;;;;;;7.50;6.10;;;;;;;;;;762399;184;920769;-64
2023/01/09 13:06:45;;;;;;;9.00;6.10;;;;;;;;;;769596;183;919459;-64
2023/01/09 13:09:12;;;;;;;7.73;5.43;;;;;;;;;;753940;186;919671;-63
2023/01/09 13:11:37;;;;;;;8.50;5.73;;;;;;;;;;754805;182;918058;-63
2023/01/09 13:14:03;;;;;;;9.17;5.53;;;;;;;;;;758788;185;920236;-63
2023/01/09 13:16:30;;;;;;;9.73;6.50;;;;;;;;;;754455;182;918888;-63
2023/01/09 13:18:59;;;;;;;11.70;7.30;;;;;;;;;;760344;182;918346;-71
2023/01/09 13:21:25;;;;;;;11.25;7.37;;;;;;;;;;763306;182;921972;-63
2023/01/09 13:23:51;;;;;;;10.20;7.17;;;;;;;;;;778919;182;918676;-63
2023/01/09 13:26:23;;;;;;;10.50;7.90;;;;;;;;;;771820;180;919781;-64
2023/01/09 13:28:52;;;;;;;11.40;7.10;;;;;;;;;;771900;181;919149;-63
2023/01/09 13:31:19;;;;;;;13.70;10.17;;;;;;;;;;763102;181;915865;-70
2023/01/09 13:33:44;;;;;;;12.90;8.00;;;;;;;;;;777368;179;912479;-63
2023/01/09 13:36:10;;;;;;;11.70;8.27;;;;;;;;;;774390;181;937679;-70
2023/01/09 13:38:36;;;;;;;18.93;10.60;;;;;;;;;;773187;181;914669;-69
2023/01/09 13:43:41;;;;;;;13.07;9.27;;;;;;;;;;760764;181;1021434;-63
2023/01/09 13:46:07;;;;;;;17.20;11.23;;;;;;;;;;759212;181;921757;-63
2023/01/09 13:48:38;;;;;;;15.05;11.30;;;;;;;;;;769928;181;919457;-69
2023/01/09 13:51:21;;;;;;;16.83;10.73;;;;;;;;;;769968;182;919099;-69
2023/01/09 13:53:47;;;;;;;13.87;10.23;;;;;;;;;;766069;180;919858;-63
2023/01/09 13:56:14;;;;;;;15.00;11.63;;;;;;;;;;770896;181;919389;-62
2023/01/09 13:58:52;;;;;;;16.37;10.47;;;;;;;;;;767520;180;919274;-63
2023/01/09 14:01:22;;;;;;;17.43;12.73;;;;;;;;;;766187;182;1245501;-68
2023/01/09 14:03:48;;;;;;;20.70;12.10;;;;;;;;;;772958;179;918960;-62
2023/01/09 14:06:15;;;;;;;16.37;11.60;;;;;;;;;;775911;181;920766;-62
2023/01/09 14:08:40;;;;;;;16.50;11.80;;;;;;;;;;773697;182;817781;-62
2023/01/09 14:11:06;;;;;;;15.87;11.70;;;;;;;;;;772334;180;891786;-68
2023/01/09 14:13:37;;;;;;;19.83;12.87;;;;;;;;;;773624;181;916743;-68
2023/01/09 14:16:05;;;;;;;19.23;13.93;;;;;;;;;;772708;181;933600;-68
2023/01/09 14:18:32;;;;;;;19.63;12.80;;;;;;;;;;771317;180;919238;-62
2023/01/09 14:21:00;;;;;;;16.60;12.27;;;;;;;;;;766243;182;908983;-62
2023/01/09 14:23:29;;;;;;;15.37;11.63;;;;;;;;;;774700;182;918700;-62
2023/01/09 14:25:56;;;;;;;17.97;10.90;;;;;;;;;;760425;182;820661;-65
2023/01/09 14:28:22;;;;;;;17.07;12.80;;;;;;;;;;772030;180;905032;-62
2023/01/09 14:31:07;;;;;;;18.70;12.77;;;;;;;;;;762176;182;912978;-68
2023/01/09 14:33:33;;;;;;;15.97;11.97;;;;;;;;;;768107;182;918090;-62
2023/01/09 14:36:14;;;;;;;19.97;13.27;;;;;;;;;;770782;182;920114;-62
2023/01/09 14:38:41;;;;;;;14.40;11.03;;;;;;;;;;778027;181;921509;-61